createdAt,value
2017-09-30T00:00:37.590Z,0
2017-09-30T00:01:18.208Z,0
2017-09-30T00:01:59.177Z,0
2017-09-30T00:02:39.627Z,0
2017-09-30T00:03:20.226Z,0
2017-09-30T00:04:00.784Z,0
2017-09-30T00:04:41.335Z,0
2017-09-30T00:05:21.912Z,0
2017-09-30T00:06:02.461Z,0
2017-09-30T00:06:43.129Z,0
2017-09-30T00:07:23.751Z,0
2017-09-30T00:08:04.284Z,0
2017-09-30T00:08:45.993Z,0
2017-09-30T00:09:25.842Z,0
2017-09-30T00:10:06.882Z,0
2017-09-30T00:10:48.305Z,0
2017-09-30T00:11:30.828Z,0
2017-09-30T00:12:11.523Z,0
2017-09-30T00:12:52.000Z,0
2017-09-30T00:13:32.709Z,0
2017-09-30T00:14:13.308Z,0
2017-09-30T00:14:53.864Z,0
2017-09-30T00:15:34.452Z,0
2017-09-30T00:16:15.048Z,0
2017-09-30T00:16:55.704Z,0
2017-09-30T00:17:36.245Z,0
2017-09-30T00:18:16.888Z,0
2017-09-30T00:18:57.453Z,0
2017-09-30T00:19:38.098Z,0
2017-09-30T00:20:18.581Z,0
2017-09-30T00:20:59.233Z,0
2017-09-30T00:21:39.810Z,0
2017-09-30T00:24:10.785Z,0
2017-09-30T00:24:51.330Z,0
2017-09-30T00:25:31.886Z,0
2017-09-30T00:26:12.466Z,0
2017-09-30T00:26:53.064Z,0
2017-09-30T00:27:33.661Z,0
2017-09-30T00:28:14.152Z,0
2017-09-30T00:28:54.667Z,0
2017-09-30T00:29:35.232Z,0
2017-09-30T00:30:15.796Z,0
2017-09-30T00:30:56.362Z,0
2017-09-30T00:31:36.952Z,0
2017-09-30T00:32:17.492Z,0
2017-09-30T00:32:58.061Z,0
2017-09-30T00:33:38.659Z,0
2017-09-30T00:34:19.269Z,0
2017-09-30T00:34:59.830Z,0
2017-09-30T00:35:40.389Z,0
2017-09-30T00:36:20.927Z,0
2017-09-30T00:37:01.388Z,0
2017-09-30T00:37:41.984Z,0
2017-09-30T00:38:22.575Z,0
2017-09-30T00:39:03.151Z,0
2017-09-30T00:39:43.714Z,0
2017-09-30T00:40:24.236Z,0
2017-09-30T00:41:04.780Z,0
2017-09-30T00:41:45.340Z,0
2017-09-30T00:42:25.896Z,0
2017-09-30T00:43:06.450Z,0
2017-09-30T00:43:47.031Z,0
2017-09-30T00:44:27.553Z,0
2017-09-30T00:45:08.100Z,0
2017-09-30T00:45:48.646Z,0
2017-09-30T00:46:32.193Z,0
2017-09-30T00:47:12.781Z,0
2017-09-30T00:47:53.336Z,0
2017-09-30T00:48:33.857Z,0
2017-09-30T00:49:14.508Z,0
2017-09-30T00:49:55.100Z,0
2017-09-30T00:50:35.639Z,0
2017-09-30T00:51:16.198Z,0
2017-09-30T00:51:56.740Z,0
2017-09-30T00:52:37.355Z,0
2017-09-30T00:53:17.886Z,0
2017-09-30T00:53:58.683Z,0
2017-09-30T00:54:39.699Z,0
2017-09-30T00:55:20.627Z,0
2017-09-30T00:56:01.114Z,0
2017-09-30T00:56:41.659Z,0
2017-09-30T00:57:22.181Z,0
2017-09-30T00:58:02.762Z,0
2017-09-30T00:58:43.231Z,0
2017-09-30T00:59:23.780Z,0
2017-09-30T01:00:04.369Z,0
2017-09-30T01:00:44.936Z,0
2017-09-30T01:01:25.486Z,0
2017-09-30T01:02:05.996Z,0
2017-09-30T01:02:46.512Z,0
2017-09-30T01:03:27.057Z,0
2017-09-30T01:04:07.582Z,0
2017-09-30T01:04:48.132Z,0
2017-09-30T01:05:28.700Z,0
2017-09-30T01:06:09.238Z,0
2017-09-30T01:06:49.789Z,0
2017-09-30T01:07:30.268Z,0
2017-09-30T01:08:10.820Z,0
2017-09-30T01:08:51.367Z,0
2017-09-30T01:09:31.975Z,0
2017-09-30T01:10:12.476Z,0
2017-09-30T01:10:53.026Z,0
2017-09-30T01:11:33.621Z,0
2017-09-30T01:12:14.110Z,0
2017-09-30T01:12:54.744Z,0
2017-09-30T01:13:35.227Z,0
2017-09-30T01:14:15.747Z,0
2017-09-30T01:14:56.248Z,0
2017-09-30T01:15:36.784Z,0
2017-09-30T01:16:17.352Z,0
2017-09-30T01:16:58.050Z,0
2017-09-30T01:17:38.573Z,0
2017-09-30T01:18:19.130Z,0
2017-09-30T01:18:59.676Z,0
2017-09-30T01:19:40.220Z,0
2017-09-30T01:20:20.774Z,0
2017-09-30T01:21:01.290Z,0
2017-09-30T01:21:41.824Z,0
2017-09-30T01:22:22.382Z,0
2017-09-30T01:23:02.916Z,0
2017-09-30T01:23:43.456Z,0
2017-09-30T01:24:23.964Z,0
2017-09-30T01:25:04.479Z,0
2017-09-30T01:25:45.029Z,0
2017-09-30T01:26:25.590Z,0
2017-09-30T01:27:06.148Z,0
2017-09-30T01:27:46.717Z,0
2017-09-30T01:28:27.324Z,0
2017-09-30T01:29:07.854Z,0
2017-09-30T01:29:48.389Z,0
2017-09-30T01:30:28.921Z,0
2017-09-30T01:31:09.438Z,0
2017-09-30T01:31:49.977Z,0
2017-09-30T01:32:30.536Z,0
2017-09-30T01:33:11.014Z,0
2017-09-30T01:33:51.535Z,0
2017-09-30T01:34:32.136Z,0
2017-09-30T01:35:12.692Z,0
2017-09-30T01:35:53.231Z,0
2017-09-30T01:36:33.769Z,0
2017-09-30T01:37:14.330Z,0
2017-09-30T01:37:54.838Z,0
2017-09-30T01:38:35.391Z,0
2017-09-30T01:39:15.941Z,0
2017-09-30T01:39:56.433Z,0
2017-09-30T01:40:36.968Z,0
2017-09-30T01:41:17.573Z,0
2017-09-30T01:41:58.132Z,0
2017-09-30T01:42:38.707Z,0
2017-09-30T01:43:19.213Z,0
2017-09-30T01:43:59.785Z,0
2017-09-30T01:44:40.357Z,0
2017-09-30T01:45:20.897Z,0
2017-09-30T01:46:01.479Z,0
2017-09-30T01:46:42.005Z,0
2017-09-30T01:47:22.760Z,0
2017-09-30T01:48:03.356Z,0
2017-09-30T01:48:43.904Z,0
2017-09-30T01:49:24.413Z,0
2017-09-30T01:50:04.925Z,0
2017-09-30T01:50:45.609Z,0
2017-09-30T01:51:26.159Z,0
2017-09-30T01:52:06.758Z,0
2017-09-30T01:52:47.296Z,0
2017-09-30T01:53:27.879Z,0
2017-09-30T01:54:08.456Z,0
2017-09-30T01:54:49.050Z,0
2017-09-30T01:55:29.572Z,0
2017-09-30T01:56:10.111Z,0
2017-09-30T01:56:50.646Z,0
2017-09-30T01:57:31.903Z,0
2017-09-30T01:58:12.564Z,0
2017-09-30T01:58:53.080Z,0
2017-09-30T01:59:33.664Z,0
2017-09-30T02:00:14.171Z,0
2017-09-30T02:00:54.777Z,0
2017-09-30T02:01:35.379Z,0
2017-09-30T02:02:15.914Z,0
2017-09-30T02:02:56.398Z,0
2017-09-30T02:03:36.955Z,0
2017-09-30T02:04:17.484Z,0
2017-09-30T02:04:58.056Z,0
2017-09-30T02:05:38.606Z,0
2017-09-30T02:06:19.177Z,0
2017-09-30T02:06:59.718Z,0
2017-09-30T02:07:40.259Z,0
2017-09-30T02:09:54.732Z,0
2017-09-30T02:10:35.237Z,0
2017-09-30T02:11:15.764Z,0
2017-09-30T02:11:56.316Z,0
2017-09-30T02:12:36.821Z,0
2017-09-30T02:13:17.399Z,0
2017-09-30T02:13:57.892Z,0
2017-09-30T02:14:38.440Z,0
2017-09-30T02:15:19.014Z,0
2017-09-30T02:16:00.275Z,0
2017-09-30T02:16:40.923Z,0
2017-09-30T02:17:21.447Z,0
2017-09-30T02:18:02.186Z,0
2017-09-30T02:18:42.678Z,0
2017-09-30T02:19:23.236Z,0
2017-09-30T02:20:03.913Z,0
2017-09-30T02:20:44.909Z,0
2017-09-30T02:21:25.369Z,0
2017-09-30T02:22:05.902Z,0
2017-09-30T02:22:46.469Z,0
2017-09-30T02:23:27.055Z,0
2017-09-30T02:24:07.581Z,0
2017-09-30T02:24:48.175Z,0
2017-09-30T02:25:28.729Z,0
2017-09-30T02:26:09.257Z,0
2017-09-30T02:26:49.828Z,0
2017-09-30T02:27:30.460Z,0
2017-09-30T02:28:11.060Z,0
2017-09-30T02:28:51.606Z,0
2017-09-30T02:29:32.230Z,0
2017-09-30T02:30:12.749Z,0
2017-09-30T02:30:53.271Z,0
2017-09-30T02:31:33.807Z,0
2017-09-30T02:32:14.385Z,0
2017-09-30T02:32:54.892Z,0
2017-09-30T02:33:35.475Z,0
2017-09-30T02:34:16.092Z,0
2017-09-30T02:34:56.678Z,0
2017-09-30T02:35:37.335Z,0
2017-09-30T02:36:17.949Z,0
2017-09-30T02:36:58.586Z,0
2017-09-30T02:37:39.104Z,0
2017-09-30T02:38:19.654Z,0
2017-09-30T02:39:00.282Z,0
2017-09-30T02:39:40.767Z,0
2017-09-30T02:40:21.330Z,0
2017-09-30T02:41:01.880Z,0
2017-09-30T02:41:42.444Z,0
2017-09-30T02:42:22.999Z,0
2017-09-30T02:43:03.514Z,0
2017-09-30T02:43:44.055Z,0
2017-09-30T02:44:24.603Z,0
2017-09-30T02:45:05.157Z,0
2017-09-30T02:45:45.752Z,0
2017-09-30T02:46:26.337Z,0
2017-09-30T02:47:06.790Z,0
2017-09-30T02:47:47.424Z,0
2017-09-30T02:48:28.009Z,0
2017-09-30T02:49:08.488Z,0
2017-09-30T02:49:49.043Z,0
2017-09-30T02:50:29.604Z,0
2017-09-30T02:51:10.121Z,0
2017-09-30T02:51:50.689Z,0
2017-09-30T02:52:31.311Z,0
2017-09-30T02:53:11.794Z,0
2017-09-30T02:53:52.366Z,0
2017-09-30T02:54:32.908Z,0
2017-09-30T02:55:13.508Z,0
2017-09-30T02:55:54.068Z,0
2017-09-30T02:56:34.645Z,0
2017-09-30T02:57:15.233Z,0
2017-09-30T02:57:55.738Z,0
2017-09-30T02:58:36.356Z,0
2017-09-30T02:59:16.858Z,0
2017-09-30T02:59:57.389Z,0
2017-09-30T03:00:37.950Z,0
2017-09-30T03:01:18.669Z,0
2017-09-30T03:01:59.189Z,0
2017-09-30T03:02:39.757Z,0
2017-09-30T03:03:20.256Z,0
2017-09-30T03:04:00.808Z,0
2017-09-30T03:04:41.313Z,0
2017-09-30T03:05:21.895Z,0
2017-09-30T03:06:02.371Z,0
2017-09-30T03:06:42.903Z,0
2017-09-30T03:07:23.450Z,0
2017-09-30T03:08:04.012Z,0
2017-09-30T03:08:44.561Z,0
2017-09-30T03:09:25.168Z,0
2017-09-30T03:10:05.691Z,0
2017-09-30T03:10:46.187Z,0
2017-09-30T03:11:26.775Z,0
2017-09-30T03:12:07.361Z,0
2017-09-30T03:12:47.953Z,0
2017-09-30T03:13:28.431Z,0
2017-09-30T03:14:09.020Z,0
2017-09-30T03:14:49.526Z,0
2017-09-30T03:15:30.059Z,0
2017-09-30T03:16:10.619Z,0
2017-09-30T03:16:51.205Z,0
2017-09-30T03:17:31.725Z,0
2017-09-30T03:18:12.299Z,0
2017-09-30T03:18:52.852Z,0
2017-09-30T03:19:33.382Z,0
2017-09-30T03:20:13.952Z,0
2017-09-30T03:20:54.450Z,0
2017-09-30T03:21:35.058Z,0
2017-09-30T03:22:15.581Z,0
2017-09-30T03:22:56.120Z,0
2017-09-30T03:23:36.664Z,0
2017-09-30T03:24:17.205Z,0
2017-09-30T03:24:57.804Z,0
2017-09-30T03:25:38.321Z,0
2017-09-30T03:26:19.013Z,0
2017-09-30T03:26:59.589Z,0
2017-09-30T03:27:40.131Z,0
2017-09-30T03:28:20.769Z,0
2017-09-30T03:29:01.303Z,0
2017-09-30T03:29:41.819Z,0
2017-09-30T03:30:22.384Z,0
2017-09-30T03:31:02.930Z,0
2017-09-30T03:31:43.483Z,0
2017-09-30T03:32:24.055Z,0
2017-09-30T03:33:04.603Z,0
2017-09-30T03:33:45.222Z,0
2017-09-30T03:34:25.813Z,0
2017-09-30T03:35:06.750Z,0
2017-09-30T03:35:47.408Z,0
2017-09-30T03:36:27.826Z,0
2017-09-30T03:37:08.381Z,0
2017-09-30T03:37:48.895Z,0
2017-09-30T03:38:29.464Z,0
2017-09-30T03:39:09.950Z,0
2017-09-30T03:39:50.507Z,0
2017-09-30T03:40:31.049Z,0
2017-09-30T03:41:11.613Z,0
2017-09-30T03:41:52.118Z,0
2017-09-30T03:42:32.686Z,0
2017-09-30T03:43:13.193Z,0
2017-09-30T03:43:53.725Z,0
2017-09-30T03:44:34.255Z,0
2017-09-30T03:45:14.907Z,0
2017-09-30T03:45:55.358Z,0
2017-09-30T03:46:35.958Z,0
2017-09-30T03:47:16.574Z,0
2017-09-30T03:47:57.008Z,0
2017-09-30T03:48:37.612Z,0
2017-09-30T03:49:18.130Z,0
2017-09-30T03:49:58.657Z,0
2017-09-30T03:50:39.190Z,0
2017-09-30T03:51:19.743Z,0
2017-09-30T03:52:00.304Z,0
2017-09-30T03:52:40.852Z,0
2017-09-30T03:53:21.396Z,0
2017-09-30T03:55:50.163Z,0
2017-09-30T03:56:30.541Z,0
2017-09-30T03:57:11.141Z,0
2017-09-30T03:57:51.717Z,0
2017-09-30T03:58:32.293Z,0
2017-09-30T03:59:12.838Z,0
2017-09-30T03:59:53.379Z,0
2017-09-30T04:00:33.961Z,0
2017-09-30T04:01:14.442Z,0
2017-09-30T04:01:54.986Z,0
2017-09-30T04:02:35.614Z,0
2017-09-30T04:03:16.096Z,0
2017-09-30T04:03:56.666Z,0
2017-09-30T04:04:37.256Z,0
2017-09-30T04:05:17.795Z,0
2017-09-30T04:05:58.386Z,0
2017-09-30T04:06:38.967Z,0
2017-09-30T04:07:19.473Z,0
2017-09-30T04:07:59.962Z,0
2017-09-30T04:08:40.531Z,0
2017-09-30T04:09:21.058Z,0
2017-09-30T04:10:01.593Z,0
2017-09-30T04:10:42.142Z,0
2017-09-30T04:11:22.685Z,0
2017-09-30T04:12:03.218Z,0
2017-09-30T04:12:43.781Z,0
2017-09-30T04:13:24.318Z,0
2017-09-30T04:14:04.881Z,0
2017-09-30T04:14:45.392Z,0
2017-09-30T04:15:25.946Z,0
2017-09-30T04:16:06.547Z,0
2017-09-30T04:16:47.095Z,0
2017-09-30T04:17:27.620Z,0
2017-09-30T04:18:08.170Z,0
2017-09-30T04:18:48.695Z,0
2017-09-30T04:19:29.271Z,0
2017-09-30T04:20:09.839Z,0
2017-09-30T04:20:50.352Z,0
2017-09-30T04:21:30.882Z,0
2017-09-30T04:22:11.481Z,0
2017-09-30T04:22:51.972Z,0
2017-09-30T04:23:32.535Z,0
2017-09-30T04:24:13.069Z,0
2017-09-30T04:24:53.644Z,0
2017-09-30T04:25:34.261Z,0
2017-09-30T04:26:14.789Z,0
2017-09-30T04:26:55.323Z,0
2017-09-30T04:27:35.866Z,0
2017-09-30T04:28:16.409Z,0
2017-09-30T04:28:57.040Z,0
2017-09-30T04:29:37.505Z,0
2017-09-30T04:30:18.102Z,0
2017-09-30T04:30:58.668Z,0
2017-09-30T04:31:39.163Z,0
2017-09-30T04:32:19.833Z,0
2017-09-30T04:33:00.332Z,0
2017-09-30T04:33:40.901Z,0
2017-09-30T04:34:21.450Z,0
2017-09-30T04:35:02.008Z,0
2017-09-30T04:35:42.595Z,0
2017-09-30T04:36:23.104Z,0
2017-09-30T04:37:03.615Z,0
2017-09-30T04:37:44.098Z,0
2017-09-30T04:38:24.701Z,0
2017-09-30T04:39:05.260Z,0
2017-09-30T04:39:45.912Z,0
2017-09-30T04:40:26.359Z,0
2017-09-30T04:41:06.928Z,0
2017-09-30T04:41:47.416Z,0
2017-09-30T04:42:27.995Z,0
2017-09-30T04:43:08.516Z,0
2017-09-30T04:43:49.055Z,0
2017-09-30T04:44:29.529Z,0
2017-09-30T04:45:10.096Z,0
2017-09-30T04:45:50.607Z,0
2017-09-30T04:46:31.198Z,0
2017-09-30T04:48:44.784Z,0
2017-09-30T04:49:25.219Z,0
2017-09-30T04:50:05.788Z,0
2017-09-30T04:50:46.306Z,0
2017-09-30T04:51:26.862Z,0
2017-09-30T04:52:07.414Z,0
2017-09-30T04:52:47.952Z,0
2017-09-30T04:53:28.521Z,0
2017-09-30T04:54:09.034Z,0
2017-09-30T04:54:49.584Z,0
2017-09-30T04:55:30.587Z,0
2017-09-30T04:56:11.185Z,0
2017-09-30T04:56:51.720Z,0
2017-09-30T04:57:32.262Z,0
2017-09-30T04:58:12.839Z,0
2017-09-30T04:58:53.348Z,0
2017-09-30T04:59:33.860Z,0
2017-09-30T05:00:14.495Z,0
2017-09-30T05:00:55.025Z,0
2017-09-30T05:01:35.601Z,0
2017-09-30T05:02:16.204Z,0
2017-09-30T05:02:56.750Z,0
2017-09-30T05:03:37.336Z,0
2017-09-30T05:04:17.848Z,0
2017-09-30T05:04:58.336Z,0
2017-09-30T05:05:38.955Z,0
2017-09-30T05:06:19.467Z,0
2017-09-30T05:07:00.033Z,0
2017-09-30T05:07:40.515Z,0
2017-09-30T05:08:21.109Z,0
2017-09-30T05:09:01.652Z,0
2017-09-30T05:09:42.201Z,0
2017-09-30T05:10:22.862Z,0
2017-09-30T05:11:03.437Z,0
2017-09-30T05:11:43.926Z,0
2017-09-30T05:12:24.544Z,0
2017-09-30T05:13:05.036Z,0
2017-09-30T05:13:45.559Z,0
2017-09-30T05:14:26.110Z,0
2017-09-30T05:15:06.858Z,0
2017-09-30T05:15:47.432Z,0
2017-09-30T05:16:28.024Z,0
2017-09-30T05:17:08.575Z,0
2017-09-30T05:17:49.152Z,0
2017-09-30T05:18:29.670Z,0
2017-09-30T05:19:10.270Z,0
2017-09-30T05:19:50.746Z,0
2017-09-30T05:20:31.316Z,0
2017-09-30T05:21:11.834Z,0
2017-09-30T05:21:52.405Z,0
2017-09-30T05:22:32.917Z,0
2017-09-30T05:23:13.475Z,0
2017-09-30T05:23:54.000Z,0
2017-09-30T05:24:34.573Z,0
2017-09-30T05:25:15.073Z,0
2017-09-30T05:25:55.644Z,5
2017-09-30T05:26:36.161Z,5
2017-09-30T05:27:16.719Z,5
2017-09-30T05:27:57.259Z,5
2017-09-30T05:28:37.814Z,5
2017-09-30T05:29:18.379Z,5
2017-09-30T05:29:58.955Z,5
2017-09-30T05:30:39.417Z,5
2017-09-30T05:31:19.981Z,5
2017-09-30T05:32:00.528Z,5
2017-09-30T05:32:41.019Z,5
2017-09-30T05:33:22.493Z,5
2017-09-30T05:34:03.000Z,10
2017-09-30T05:34:43.538Z,10
2017-09-30T05:35:24.148Z,10
2017-09-30T05:36:04.759Z,10
2017-09-30T05:36:45.258Z,10
2017-09-30T05:37:25.959Z,15
2017-09-30T05:38:06.534Z,15
2017-09-30T05:38:47.106Z,15
2017-09-30T05:39:27.666Z,15
2017-09-30T05:41:43.513Z,20
2017-09-30T05:42:24.151Z,25
2017-09-30T05:43:04.672Z,25
2017-09-30T05:43:45.282Z,25
2017-09-30T05:44:25.867Z,30
2017-09-30T05:45:06.412Z,30
2017-09-30T05:45:46.989Z,30
2017-09-30T05:46:27.507Z,35
2017-09-30T05:47:08.093Z,35
2017-09-30T05:47:48.641Z,35
2017-09-30T05:48:29.197Z,35
2017-09-30T05:49:09.757Z,40
2017-09-30T05:49:50.323Z,40
2017-09-30T05:50:30.849Z,40
2017-09-30T05:51:11.353Z,40
2017-09-30T05:51:51.977Z,40
2017-09-30T05:52:32.528Z,40
2017-09-30T05:53:13.054Z,40
2017-09-30T05:53:55.582Z,40
2017-09-30T05:54:36.135Z,40
2017-09-30T05:55:16.718Z,40
2017-09-30T05:55:57.281Z,40
2017-09-30T05:56:37.866Z,40
2017-09-30T05:57:18.386Z,40
2017-09-30T05:57:58.926Z,40
2017-09-30T05:58:39.479Z,40
2017-09-30T05:59:20.281Z,40
2017-09-30T06:00:00.847Z,40
2017-09-30T06:00:41.465Z,40
2017-09-30T06:01:22.072Z,40
2017-09-30T06:02:02.654Z,45
2017-09-30T06:02:43.264Z,45
2017-09-30T06:03:23.842Z,45
2017-09-30T06:04:04.397Z,45
2017-09-30T06:06:44.090Z,45
2017-09-30T06:07:24.655Z,45
2017-09-30T06:08:05.252Z,45
2017-09-30T06:08:45.862Z,50
2017-09-30T06:09:26.335Z,50
2017-09-30T06:10:06.808Z,55
2017-09-30T06:10:47.428Z,50
2017-09-30T06:11:27.939Z,50
2017-09-30T06:12:08.413Z,50
2017-09-30T06:12:49.019Z,55
2017-09-30T06:13:29.540Z,55
2017-09-30T06:14:10.109Z,55
2017-09-30T06:14:50.629Z,55
2017-09-30T06:15:31.215Z,55
2017-09-30T06:16:11.732Z,55
2017-09-30T06:16:52.274Z,55
2017-09-30T06:17:32.799Z,60
2017-09-30T06:18:13.283Z,60
2017-09-30T06:18:53.835Z,60
2017-09-30T06:19:34.349Z,60
2017-09-30T06:20:15.674Z,60
2017-09-30T06:20:56.207Z,60
2017-09-30T06:21:36.774Z,65
2017-09-30T06:22:17.295Z,65
2017-09-30T06:22:57.814Z,65
2017-09-30T06:23:38.365Z,65
2017-09-30T06:24:18.959Z,70
2017-09-30T06:24:59.566Z,70
2017-09-30T06:25:40.170Z,70
2017-09-30T06:26:20.722Z,70
2017-09-30T06:27:01.976Z,70
2017-09-30T06:27:42.494Z,75
2017-09-30T06:28:23.033Z,75
2017-09-30T06:29:03.590Z,75
2017-09-30T06:29:44.465Z,75
2017-09-30T06:30:25.048Z,75
2017-09-30T06:31:05.642Z,75
2017-09-30T06:31:46.090Z,75
2017-09-30T06:32:26.645Z,75
2017-09-30T06:33:07.157Z,75
2017-09-30T06:33:47.711Z,80
2017-09-30T06:34:28.260Z,75
2017-09-30T06:35:08.739Z,75
2017-09-30T06:35:49.329Z,75
2017-09-30T06:36:30.023Z,75
2017-09-30T06:37:10.665Z,75
2017-09-30T06:37:51.273Z,80
2017-09-30T06:38:31.756Z,85
2017-09-30T06:39:12.287Z,90
2017-09-30T06:39:52.853Z,95
2017-09-30T06:40:33.404Z,95
2017-09-30T06:41:13.949Z,95
2017-09-30T06:41:54.485Z,95
2017-09-30T06:42:35.389Z,90
2017-09-30T06:43:15.992Z,85
2017-09-30T06:43:56.507Z,80
2017-09-30T06:44:37.082Z,75
2017-09-30T06:45:17.614Z,70
2017-09-30T06:45:58.176Z,70
2017-09-30T06:46:38.870Z,70
2017-09-30T06:47:19.621Z,65
2017-09-30T06:48:00.180Z,65
2017-09-30T06:48:40.731Z,65
2017-09-30T06:49:21.269Z,65
2017-09-30T06:50:01.825Z,70
2017-09-30T06:50:42.318Z,75
2017-09-30T06:51:22.834Z,70
2017-09-30T06:52:03.697Z,70
2017-09-30T06:52:44.246Z,70
2017-09-30T06:53:24.809Z,65
2017-09-30T06:54:05.381Z,65
2017-09-30T06:54:46.261Z,60
2017-09-30T06:55:42.976Z,60
2017-09-30T06:56:26.027Z,60
2017-09-30T06:57:06.621Z,55
2017-09-30T06:57:47.126Z,55
2017-09-30T06:58:27.697Z,55
2017-09-30T06:59:08.275Z,55
2017-09-30T06:59:48.831Z,50
2017-09-30T07:00:29.432Z,55
2017-09-30T07:01:10.031Z,55
2017-09-30T07:01:50.549Z,55
2017-09-30T07:02:31.061Z,50
2017-09-30T07:03:11.655Z,50
2017-09-30T07:03:52.183Z,50
2017-09-30T07:04:32.725Z,50
2017-09-30T07:05:13.280Z,55
2017-09-30T07:05:53.825Z,55
2017-09-30T07:06:34.443Z,60
2017-09-30T07:07:14.922Z,60
2017-09-30T07:07:55.512Z,65
2017-09-30T07:08:36.073Z,65
2017-09-30T07:09:16.627Z,70
2017-09-30T07:09:57.169Z,70
2017-09-30T07:10:37.725Z,75
2017-09-30T07:11:18.259Z,75
2017-09-30T07:11:58.780Z,75
2017-09-30T07:12:39.374Z,75
2017-09-30T07:13:19.988Z,75
2017-09-30T07:14:00.539Z,75
2017-09-30T07:14:41.137Z,75
2017-09-30T07:15:21.635Z,75
2017-09-30T07:16:02.162Z,75
2017-09-30T07:16:42.654Z,75
2017-09-30T07:17:23.264Z,75
2017-09-30T07:18:04.716Z,75
2017-09-30T07:18:45.227Z,75
2017-09-30T07:19:25.779Z,75
2017-09-30T07:20:06.323Z,75
2017-09-30T07:20:46.850Z,80
2017-09-30T07:21:27.428Z,80
2017-09-30T07:22:08.004Z,85
2017-09-30T07:22:48.544Z,85
2017-09-30T07:23:29.092Z,90
2017-09-30T07:24:09.670Z,90
2017-09-30T07:24:50.252Z,90
2017-09-30T07:25:30.834Z,95
2017-09-30T07:27:44.113Z,90
2017-09-30T07:28:24.635Z,90
2017-09-30T07:29:05.183Z,90
2017-09-30T07:29:45.750Z,90
2017-09-30T07:30:26.310Z,95
2017-09-30T07:31:06.803Z,95
2017-09-30T07:31:47.366Z,95
2017-09-30T07:32:27.933Z,95
2017-09-30T07:33:08.457Z,95
2017-09-30T07:33:48.993Z,100
2017-09-30T07:34:29.569Z,100
2017-09-30T07:35:10.139Z,100
2017-09-30T07:35:50.910Z,100
2017-09-30T07:36:31.392Z,105
2017-09-30T07:37:12.001Z,105
2017-09-30T07:37:52.511Z,110
2017-09-30T07:38:33.034Z,110
2017-09-30T07:39:13.584Z,110
2017-09-30T07:39:54.136Z,110
2017-09-30T07:40:34.648Z,110
2017-09-30T07:41:15.184Z,120
2017-09-30T07:41:55.770Z,120
2017-09-30T07:42:36.382Z,120
2017-09-30T07:43:16.944Z,115
2017-09-30T07:43:57.486Z,110
2017-09-30T07:44:38.050Z,105
2017-09-30T07:45:18.529Z,100
2017-09-30T07:45:59.120Z,105
2017-09-30T07:46:39.641Z,105
2017-09-30T07:47:20.161Z,110
2017-09-30T07:48:00.684Z,120
2017-09-30T07:48:41.432Z,135
2017-09-30T07:49:22.017Z,135
2017-09-30T07:50:02.509Z,140
2017-09-30T07:50:43.073Z,135
2017-09-30T07:51:23.610Z,140
2017-09-30T07:52:04.135Z,140
2017-09-30T07:52:44.713Z,145
2017-09-30T07:53:25.259Z,140
2017-09-30T07:54:06.776Z,140
2017-09-30T07:54:47.313Z,140
2017-09-30T07:55:27.879Z,145
2017-09-30T07:56:08.425Z,145
2017-09-30T07:56:48.927Z,150
2017-09-30T07:57:29.524Z,155
2017-09-30T07:58:10.074Z,165
2017-09-30T07:58:50.562Z,160
2017-09-30T07:59:31.141Z,165
2017-09-30T08:00:11.804Z,160
2017-09-30T08:00:52.273Z,165
2017-09-30T08:01:32.786Z,165
2017-09-30T08:02:13.336Z,165
2017-09-30T08:02:53.956Z,165
2017-09-30T08:03:34.575Z,160
2017-09-30T08:04:15.156Z,160
2017-09-30T08:04:55.659Z,160
2017-09-30T08:05:36.339Z,155
2017-09-30T08:06:16.870Z,155
2017-09-30T08:06:57.443Z,155
2017-09-30T08:07:37.972Z,155
2017-09-30T08:08:18.484Z,155
2017-09-30T08:08:59.050Z,155
2017-09-30T08:09:39.599Z,150
2017-09-30T08:10:20.318Z,150
2017-09-30T08:11:00.809Z,145
2017-09-30T08:11:41.438Z,140
2017-09-30T08:12:21.913Z,140
2017-09-30T08:13:02.571Z,135
2017-09-30T08:13:43.204Z,135
2017-09-30T08:14:23.724Z,130
2017-09-30T08:15:04.278Z,125
2017-09-30T08:15:44.825Z,115
2017-09-30T08:16:25.356Z,120
2017-09-30T08:17:05.910Z,120
2017-09-30T08:17:46.424Z,120
2017-09-30T08:18:26.951Z,120
2017-09-30T08:19:07.531Z,120
2017-09-30T08:19:48.003Z,120
2017-09-30T08:20:28.585Z,120
2017-09-30T08:21:09.164Z,120
2017-09-30T08:21:49.701Z,120
2017-09-30T08:22:30.275Z,120
2017-09-30T08:23:10.804Z,115
2017-09-30T08:23:51.365Z,115
2017-09-30T08:24:32.251Z,115
2017-09-30T08:25:12.802Z,115
2017-09-30T08:25:53.382Z,115
2017-09-30T08:26:33.889Z,120
2017-09-30T08:27:14.455Z,120
2017-09-30T08:27:54.900Z,120
2017-09-30T08:28:35.523Z,120
2017-09-30T08:29:16.118Z,120
2017-09-30T08:29:56.660Z,120
2017-09-30T08:30:37.214Z,120
2017-09-30T08:31:17.776Z,120
2017-09-30T08:31:58.234Z,120
2017-09-30T08:32:38.825Z,120
2017-09-30T08:33:19.367Z,120
2017-09-30T08:33:59.878Z,120
2017-09-30T08:34:40.572Z,125
2017-09-30T08:35:21.146Z,125
2017-09-30T08:36:01.655Z,125
2017-09-30T08:36:42.230Z,125
2017-09-30T08:37:22.780Z,125
2017-09-30T08:38:03.387Z,125
2017-09-30T08:38:43.926Z,125
2017-09-30T08:39:24.522Z,125
2017-09-30T08:40:05.109Z,125
2017-09-30T08:40:45.633Z,125
2017-09-30T08:41:26.157Z,120
2017-09-30T08:42:06.688Z,120
2017-09-30T08:42:47.256Z,125
2017-09-30T08:43:27.798Z,120
2017-09-30T08:44:08.353Z,120
2017-09-30T08:44:48.931Z,120
2017-09-30T08:45:29.430Z,120
2017-09-30T08:46:09.989Z,120
2017-09-30T08:46:50.529Z,120
2017-09-30T08:47:31.111Z,120
2017-09-30T08:48:11.693Z,120
2017-09-30T08:48:52.239Z,120
2017-09-30T08:49:32.828Z,120
2017-09-30T08:50:13.581Z,120
2017-09-30T08:50:54.107Z,120
2017-09-30T08:51:34.617Z,120
2017-09-30T08:52:15.188Z,120
2017-09-30T08:52:55.786Z,115
2017-09-30T08:53:36.338Z,115
2017-09-30T08:54:16.871Z,115
2017-09-30T08:54:57.381Z,110
2017-09-30T08:55:37.956Z,110
2017-09-30T08:56:18.466Z,110
2017-09-30T08:56:58.961Z,105
2017-09-30T08:57:39.516Z,105
2017-09-30T08:58:20.086Z,105
2017-09-30T08:59:00.826Z,105
2017-09-30T08:59:41.416Z,110
2017-09-30T09:00:21.921Z,110
2017-09-30T09:01:02.551Z,110
2017-09-30T09:01:43.106Z,110
2017-09-30T09:02:23.587Z,110
2017-09-30T09:03:04.170Z,110
2017-09-30T09:03:44.758Z,110
2017-09-30T09:04:25.267Z,110
2017-09-30T09:05:05.859Z,110
2017-09-30T09:05:46.361Z,110
2017-09-30T09:06:26.885Z,105
2017-09-30T09:07:07.540Z,105
2017-09-30T09:07:48.198Z,105
2017-09-30T09:08:28.929Z,105
2017-09-30T09:09:09.427Z,105
2017-09-30T09:09:50.054Z,105
2017-09-30T09:10:30.596Z,105
2017-09-30T09:11:11.111Z,105
2017-09-30T09:11:51.648Z,105
2017-09-30T09:12:32.264Z,105
2017-09-30T09:13:12.797Z,105
2017-09-30T09:13:53.314Z,105
2017-09-30T09:14:33.844Z,105
2017-09-30T09:15:14.393Z,105
2017-09-30T09:15:54.940Z,105
2017-09-30T09:16:35.484Z,105
2017-09-30T09:17:16.068Z,105
2017-09-30T09:17:56.645Z,105
2017-09-30T09:18:37.194Z,105
2017-09-30T09:19:17.727Z,105
2017-09-30T09:19:58.297Z,105
2017-09-30T09:20:38.939Z,100
2017-09-30T09:21:19.405Z,105
2017-09-30T09:21:59.934Z,100
2017-09-30T09:22:40.493Z,105
2017-09-30T09:23:21.011Z,105
2017-09-30T09:24:01.671Z,105
2017-09-30T09:24:42.215Z,105
2017-09-30T09:25:22.831Z,105
2017-09-30T09:26:03.341Z,105
2017-09-30T09:26:43.970Z,105
2017-09-30T09:27:24.504Z,105
2017-09-30T09:28:05.081Z,105
2017-09-30T09:28:45.675Z,105
2017-09-30T09:29:26.136Z,105
2017-09-30T09:30:06.722Z,105
2017-09-30T09:30:47.251Z,105
2017-09-30T09:31:27.872Z,105
2017-09-30T09:32:08.341Z,105
2017-09-30T09:32:48.866Z,105
2017-09-30T09:33:29.419Z,105
2017-09-30T09:34:10.013Z,105
2017-09-30T09:34:50.638Z,105
2017-09-30T09:35:31.155Z,110
2017-09-30T09:36:11.700Z,110
2017-09-30T09:36:52.267Z,110
2017-09-30T09:37:33.061Z,110
2017-09-30T09:38:13.630Z,110
2017-09-30T09:38:54.149Z,115
2017-09-30T09:39:34.704Z,115
2017-09-30T09:40:15.325Z,120
2017-09-30T09:40:55.872Z,120
2017-09-30T09:41:36.409Z,120
2017-09-30T09:42:17.008Z,120
2017-09-30T09:42:57.573Z,120
2017-09-30T09:43:38.142Z,120
2017-09-30T09:44:18.682Z,125
2017-09-30T09:44:59.179Z,125
2017-09-30T09:45:39.709Z,130
2017-09-30T09:46:20.248Z,130
2017-09-30T09:47:00.862Z,135
2017-09-30T09:47:41.351Z,140
2017-09-30T09:48:21.953Z,145
2017-09-30T09:49:02.411Z,145
2017-09-30T09:49:43.027Z,150
2017-09-30T09:50:23.659Z,155
2017-09-30T09:51:04.256Z,155
2017-09-30T09:51:44.781Z,155
2017-09-30T09:52:25.366Z,155
2017-09-30T09:53:06.037Z,150
2017-09-30T09:53:46.716Z,150
2017-09-30T09:54:27.221Z,150
2017-09-30T09:55:07.840Z,140
2017-09-30T09:55:48.337Z,140
2017-09-30T09:56:28.863Z,135
2017-09-30T09:57:09.423Z,125
2017-09-30T09:57:49.974Z,120